aviador You're here:

KAMN Decoded Metar

ALMA in MI, USA
Report Time2018-07-22 15:55:00
UTC Time2018-07-22 16:07:35
Flight Rules mvfr MVFR
Wind030° at 09 Gusting to 20 kt
W.Decomp.*RWY 36: 7.4 kt HW 5.2 kt RCW
RWY 09: 5.2 kt HW 7.4 kt LCW
W.Rank030° ranks 26
Current wind is above 030° avg. (6.2)
Visibility9999 m
Phenomena:N/A
Clouds:Broken 014 Hf
Broken 021 Hf
Overcast 027 Hf
Expected CloudBase > 800 ft AGL from Temp-Dew spread
Ceiling1,400 ft
Temp22°C (ISA +8)
Dew Point20°C (88% RH)
QNH1012 hPa
Density Alt2,090 ft
Elevation755 ft
Report Wrong Elevation
Raw Report
KAMN 221555Z AUTO 03009G20KT 10SM BKN014 BKN021 OVC027 22/20 A2988
RMK AO2 T02150196=

Extra information for KAMN:More info

Metar Taf Metar & Taf Last 4 Metars F.Rules Stats Wind Profile Meteogram Temp Stats Airport Information Weather charts Add Link Nearby VenuesMetar ALERT Operation Metar Decoded Social comments

AIRNAV info for KAMN